This demonstration page uses our WeatherBlox Daily Observations layout. Learn more.

Left ArrowRight Arrow

39.01783, -85.05884

Hourly Observations for October 9, 2020

Temp ( °F °C ) Dew Point ( °F °C ) Humidity (%) Winds ( mph kmh ) Pressure ( in mb ) Visibility ( mi km ) Precip ( " mm )
12:52 am 00:52 Mostly Clear 59 15 43 6.1 56 56 S 5 7 30.13 1020 10 16.0934 0 0
1:52 am 01:52 Mostly Clear 60 15.6 44 6.7 56 56 SSE 3 6 30.11 1020 10 16.0934 0 0
2:52 am 02:52 Mostly Clear 59 15 44 6.7 58 58 SSE 3 6 30.11 1020 10 16.0934 0 0
3:52 am 03:52 Mostly Clear 57 13.9 45 7.2 64 64 Calm 30.1 1019 10 16.0934 0 0
4:52 am 04:52 Mostly Clear 57 13.9 44 6.7 62 62 SSE 7 11 30.1 1019 10 16.0934 0 0
5:52 am 05:52 Mostly Clear 57 13.9 45 7.2 64 64 SSE 3 6 30.11 1020 10 16.0934 0 0
6:52 am 06:52 Partly Cloudy 55 12.8 45 7.2 69 69 Calm 30.13 1020 10 16.0934 0 0
7:52 am 07:52 Partly Cloudy 55 12.8 45 7.2 69 69 ESE 5 7 30.12 1020 10 16.0934 0 0
8:52 am 08:52 Partly Cloudy 55 12.8 48 8.9 77 77 SSE 3 6 30.14 1021 10 16.0934 0 0
9:52 am 09:52 Mostly Cloudy 62 16.7 48 8.9 60 60 SSE 6 9 30.13 1020 9 14.48406 0 0
10:52 am 10:52 Mostly Cloudy 70 21.1 47 8.3 44 44 SSE 8 13 30.13 1020 10 16.0934 0 0
11:52 am 11:52 Mostly Cloudy 76 24.4 45 7.2 33 33 S 14 22 30.11 1020 10 16.0934 0 0
12:52 pm 12:52 Mostly Cloudy 78 25.6 45 7.2 31 31 S 10 17 30.09 1019 10 16.0934 0 0
1:52 pm 13:52 Mostly Cloudy 81 27.2 45 7.2 28 28 S 12 19 30.07 1018 10 16.0934 0 0
2:52 pm 14:52 Cloudy 78 25.6 48 8.9 35 35 S 7 11 30.04 1017 10 16.0934 0 0
3:52 pm 15:52 Cloudy 79 26.1 48 8.9 34 34 SSE 9 15 30.01 1016 10 16.0934 0 0
4:52 pm 16:52 Cloudy 80 26.7 48 8.9 33 33 S 9 15 30 1016 10 16.0934 0 0
5:52 pm 17:52 Cloudy 78 25.6 52 11.1 40 40 S 8 13 30 1016 10 16.0934 0 0
6:52 pm 18:52 Cloudy 74 23.3 56 13.3 54 54 S 8 13 30 1016 10 16.0934 0 0
7:52 pm 19:52 Cloudy 73 22.8 58 14.4 59 59 SSW 9 15 30 1016 10 16.0934 0 0
8:52 pm 20:52 Cloudy 71 21.7 60 15.6 68 68 SSW 10 17 30.01 1016 10 16.0934 0 0
9:52 pm 21:52 Cloudy 71 21.7 60 15.6 68 68 SW 9 15 29.99 1016 10 16.0934 0 0
10:52 pm 22:52 Cloudy 69 20.6 60 15.6 73 73 SSW 9 15 30 1016 10 16.0934 0 0
11:52 pm 23:52 Cloudy 67 19.4 59 15 76 76 SSW 7 11 29.99 1016 10 16.0934 0 0

Powered by AerisWeather